Wetterdaten: Woche 26.08.13 - 01.09.13 (KW35)
Datum Zeit Temp. Aussen +5cm Feuchte Auss Luftdruck Regen Sonnenschein Regendauer UV Solar Windben
26.08.2013 00:00 14,8 C 13,0 C 98 % 1014,0 hPa 0,0 l/m 0,00 h 0,00 h 0,0 UV-I 0 W/m 0,0 km/h (0 Bft)
26.08.2013 01:00 14,0 C 12,2 C 99 % 1014,0 hPa 0,0 l/m 0,00 h 0,00 h 0,0 UV-I 0 W/m 0,0 km/h (0 Bft)
26.08.2013 02:00 13,0 C 11,3 C 99 % 1014,0 hPa 0,0 l/m 0,00 h 0,07 h 0,0 UV-I 0 W/m 0,0 km/h (0 Bft)
26.08.2013 03:00 12,1 C 10,7 C 99 % 1014,2 hPa 0,2 l/m 0,00 h 0,13 h 0,0 UV-I 0 W/m 0,0 km/h (0 Bft)
26.08.2013 04:00 11,8 C 10,5 C 99 % 1014,3 hPa 0,0 l/m 0,00 h 0,00 h 0,0 UV-I 0 W/m 0,0 km/h (0 Bft)
26.08.2013 05:00 11,5 C 10,0 C 99 % 1014,4 hPa 0,0 l/m 0,00 h 0,07 h 0,0 UV-I 0 W/m 0,0 km/h (0 Bft)
26.08.2013 06:00 11,2 C 9,7 C 99 % 1014,7 hPa 0,0 l/m 0,00 h 0,00 h 0,0 UV-I 6 W/m 0,0 km/h (0 Bft)
26.08.2013 07:00 10,9 C 9,7 C 99 % 1015,2 hPa 0,0 l/m 0,00 h 0,03 h 0,0 UV-I 24 W/m 0,0 km/h (0 Bft)
26.08.2013 08:00 13,1 C 11,8 C 98 % 1015,5 hPa 0,0 l/m 0,43 h 0,00 h 0,0 UV-I 156 W/m 1,3 km/h (1 Bft)
26.08.2013 09:00 16,4 C 15,0 C 81 % 1015,6 hPa 0,0 l/m 0,97 h 0,00 h 0,7 UV-I 314 W/m 6,7 km/h (2 Bft)
26.08.2013 10:00 18,4 C 17,5 C 73 % 1015,8 hPa 0,0 l/m 0,97 h 0,00 h 1,4 UV-I 490 W/m 15,9 km/h (3 Bft)
26.08.2013 11:00 20,3 C 19,5 C 66 % 1015,8 hPa 0,0 l/m 0,90 h 0,00 h 2,2 UV-I 525 W/m 16,5 km/h (3 Bft)
26.08.2013 12:00 22,7 C 22,8 C 57 % 1015,5 hPa 0,0 l/m 0,97 h 0,00 h 2,8 UV-I 613 W/m 15,5 km/h (3 Bft)
26.08.2013 13:00 22,9 C 22,4 C 56 % 1015,4 hPa 0,0 l/m 0,97 h 0,00 h 2,5 UV-I 679 W/m 14,3 km/h (3 Bft)
26.08.2013 14:00 23,8 C 23,1 C 52 % 1015,1 hPa 0,0 l/m 0,73 h 0,00 h 2,8 UV-I 555 W/m 16,1 km/h (3 Bft)
26.08.2013 15:00 23,3 C 22,6 C 52 % 1015,1 hPa 0,0 l/m 0,43 h 0,00 h 1,4 UV-I 295 W/m 16,7 km/h (3 Bft)
26.08.2013 16:00 22,1 C 20,5 C 55 % 1015,2 hPa 0,0 l/m 0,00 h 0,00 h 0,0 UV-I 63 W/m 8,0 km/h (2 Bft)
26.08.2013 17:00 21,4 C 19,4 C 58 % 1015,3 hPa 0,0 l/m 0,00 h 0,00 h 0,0 UV-I 38 W/m 3,3 km/h (1 Bft)
26.08.2013 18:00 20,7 C 18,5 C 61 % 1015,3 hPa 0,0 l/m 0,00 h 0,13 h 0,0 UV-I 21 W/m 0,5 km/h (0 Bft)
26.08.2013 19:00 19,8 C 17,3 C 67 % 1015,4 hPa 0,0 l/m 0,00 h 0,27 h 0,0 UV-I 21 W/m 0,9 km/h (0 Bft)
26.08.2013 20:00 19,3 C 16,8 C 68 % 1015,5 hPa 0,0 l/m 0,00 h 0,00 h 0,0 UV-I 9 W/m 0,1 km/h (0 Bft)
26.08.2013 21:00 19,6 C 17,4 C 62 % 1015,9 hPa 0,0 l/m 0,00 h 0,00 h 0,0 UV-I 0 W/m 5,3 km/h (1 Bft)
26.08.2013 22:00 20,1 C 17,1 C 60 % 1015,8 hPa 0,0 l/m 0,00 h 0,00 h 0,0 UV-I 0 W/m 0,2 km/h (0 Bft)
26.08.2013 23:00 19,1 C 16,1 C 68 % 1015,9 hPa 0,0 l/m 0,00 h 0,00 h 0,0 UV-I 0 W/m 0,0 km/h (0 Bft)
27.08.2013 00:00 18,2 C 15,6 C 73 % 1015,8 hPa 0,0 l/m 0,00 h 0,00 h 0,0 UV-I 0 W/m 0,0 km/h (0 Bft)
27.08.2013 01:00 17,6 C 15,6 C 75 % 1015,8 hPa 0,0 l/m 0,00 h 0,00 h 0,0 UV-I 0 W/m 0,0 km/h (0 Bft)
27.08.2013 02:00 17,4 C 15,1 C 73 % 1015,6 hPa 0,0 l/m 0,00 h 0,00 h 0,0 UV-I 0 W/m 0,0 km/h (0 Bft)
27.08.2013 03:00 17,4 C 15,5 C 72 % 1015,5 hPa 0,0 l/m 0,00 h 0,00 h 0,0 UV-I 0 W/m 0,6 km/h (0 Bft)
27.08.2013 04:00 17,6 C 15,8 C 70 % 1015,4 hPa 0,0 l/m 0,00 h 0,00 h 0,0 UV-I 0 W/m 0,1 km/h (0 Bft)
27.08.2013 05:00 16,9 C 13,7 C 71 % 1015,4 hPa 0,0 l/m 0,00 h 0,00 h 0,0 UV-I 0 W/m 0,0 km/h (0 Bft)
27.08.2013 06:00 15,4 C 12,6 C 76 % 1015,4 hPa 0,0 l/m 0,03 h 0,00 h 0,0 UV-I 10 W/m 0,0 km/h (0 Bft)
27.08.2013 07:00 14,8 C 12,8 C 78 % 1015,4 hPa 0,0 l/m 0,07 h 0,00 h 0,0 UV-I 37 W/m 0,0 km/h (0 Bft)
27.08.2013 08:00 16,0 C 14,3 C 75 % 1015,4 hPa 0,0 l/m 0,53 h 0,00 h 0,0 UV-I 152 W/m 0,1 km/h (0 Bft)
27.08.2013 09:00 18,8 C 18,2 C 67 % 1015,4 hPa 0,0 l/m 0,97 h 0,00 h 0,7 UV-I 360 W/m 0,4 km/h (0 Bft)
27.08.2013 10:00 21,6 C 20,6 C 56 % 1015,4 hPa 0,0 l/m 0,97 h 0,00 h 1,5 UV-I 488 W/m 6,5 km/h (2 Bft)
27.08.2013 11:00 22,9 C 22,1 C 48 % 1015,3 hPa 0,0 l/m 0,97 h 0,00 h 2,4 UV-I 613 W/m 12,8 km/h (3 Bft)
27.08.2013 12:00 23,3 C 23,8 C 47 % 1015,1 hPa 0,0 l/m 0,97 h 0,00 h 3,0 UV-I 698 W/m 11,5 km/h (2 Bft)
27.08.2013 13:00 23,3 C 22,8 C 47 % 1014,9 hPa 0,0 l/m 0,73 h 0,00 h 2,2 UV-I 597 W/m 10,5 km/h (2 Bft)
27.08.2013 14:00 23,9 C 22,9 C 46 % 1014,6 hPa 0,0 l/m 0,93 h 0,00 h 3,2 UV-I 680 W/m 9,6 km/h (2 Bft)
27.08.2013 15:00 24,5 C 23,5 C 44 % 1014,3 hPa 0,0 l/m 0,93 h 0,00 h 2,7 UV-I 672 W/m 9,1 km/h (2 Bft)
27.08.2013 16:00 24,2 C 23,1 C 43 % 1014,1 hPa 0,0 l/m 0,50 h 0,00 h 1,3 UV-I 326 W/m 8,0 km/h (2 Bft)
27.08.2013 17:00 23,6 C 22,3 C 45 % 1013,8 hPa 0,0 l/m 0,40 h 0,00 h 0,8 UV-I 263 W/m 4,3 km/h (1 Bft)
27.08.2013 18:00 23,7 C 22,2 C 47 % 1013,8 hPa 0,0 l/m 0,10 h 0,00 h 0,0 UV-I 106 W/m 5,5 km/h (1 Bft)
27.08.2013 19:00 22,6 C 21,1 C 49 % 1014,0 hPa 0,0 l/m 0,20 h 0,00 h 0,0 UV-I 57 W/m 7,9 km/h (2 Bft)
27.08.2013 20:00 21,0 C 19,0 C 54 % 1014,5 hPa 0,0 l/m 0,00 h 0,00 h 0,0 UV-I 12 W/m 1,2 km/h (1 Bft)
27.08.2013 21:00 18,9 C 17,0 C 63 % 1015,2 hPa 0,0 l/m 0,00 h 0,00 h 0,0 UV-I 0 W/m 0,5 km/h (0 Bft)
27.08.2013 22:00 17,0 C 14,7 C 72 % 1015,7 hPa 0,0 l/m 0,00 h 0,00 h 0,0 UV-I 0 W/m 0,1 km/h (0 Bft)
27.08.2013 23:00 15,2 C 13,1 C 79 % 1016,1 hPa 0,0 l/m 0,00 h 0,00 h 0,0 UV-I 0 W/m 0,0 km/h (0 Bft)
28.08.2013 00:00 14,1 C 12,1 C 83 % 1016,2 hPa 0,0 l/m 0,00 h 0,00 h 0,0 UV-I 0 W/m 0,0 km/h (0 Bft)
28.08.2013 01:00 13,4 C 11,4 C 86 % 1016,4 hPa 0,0 l/m 0,00 h 0,00 h 0,0 UV-I 0 W/m 0,0 km/h (0 Bft)
28.08.2013 02:00 12,9 C 10,8 C 87 % 1016,4 hPa 0,0 l/m 0,00 h 0,00 h 0,0 UV-I 0 W/m 0,0 km/h (0 Bft)
28.08.2013 03:00 12,3 C 10,5 C 89 % 1016,5 hPa 0,0 l/m 0,00 h 0,00 h 0,0 UV-I 0 W/m 0,0 km/h (0 Bft)
28.08.2013 04:00 11,8 C 10,1 C 90 % 1016,6 hPa 0,0 l/m 0,00 h 0,00 h 0,0 UV-I 0 W/m 0,0 km/h (0 Bft)
28.08.2013 05:00 11,5 C 10,2 C 92 % 1016,9 hPa 0,0 l/m 0,00 h 0,00 h 0,0 UV-I 0 W/m 0,0 km/h (0 Bft)
28.08.2013 06:00 11,7 C 10,3 C 92 % 1017,3 hPa 0,0 l/m 0,00 h 0,00 h 0,0 UV-I 7 W/m 0,0 km/h (0 Bft)
28.08.2013 07:00 12,5 C 11,6 C 92 % 1017,9 hPa 0,0 l/m 0,00 h 0,00 h 0,0 UV-I 22 W/m 0,0 km/h (0 Bft)
28.08.2013 08:00 14,1 C 13,6 C 89 % 1018,4 hPa 0,0 l/m 0,00 h 0,00 h 0,0 UV-I 76 W/m 0,0 km/h (0 Bft)
28.08.2013 09:00 15,8 C 15,4 C 85 % 1019,0 hPa 0,0 l/m 0,00 h 0,00 h 0,0 UV-I 141 W/m 0,4 km/h (0 Bft)
28.08.2013 10:00 17,5 C 17,5 C 79 % 1019,4 hPa 0,0 l/m 0,27 h 0,00 h 0,9 UV-I 266 W/m 1,7 km/h (1 Bft)
28.08.2013 11:00 20,0 C 19,8 C 69 % 1019,5 hPa 0,0 l/m 0,97 h 0,00 h 2,1 UV-I 554 W/m 3,5 km/h (1 Bft)
28.08.2013 12:00 22,4 C 22,8 C 59 % 1019,4 hPa 0,0 l/m 0,97 h 0,00 h 2,7 UV-I 662 W/m 4,9 km/h (1 Bft)
28.08.2013 13:00 22,3 C 22,0 C 58 % 1019,4 hPa 0,0 l/m 0,43 h 0,00 h 1,9 UV-I 421 W/m 5,2 km/h (1 Bft)
28.08.2013 14:00 22,8 C 22,4 C 53 % 1019,4 hPa 0,0 l/m 0,23 h 0,00 h 1,3 UV-I 342 W/m 6,4 km/h (2 Bft)
28.08.2013 15:00 23,4 C 22,7 C 50 % 1019,3 hPa 0,0 l/m 0,70 h 0,00 h 2,3 UV-I 527 W/m 8,8 km/h (2 Bft)
28.08.2013 16:00 22,6 C 21,5 C 54 % 1019,3 hPa 0,0 l/m 0,17 h 0,00 h 0,9 UV-I 177 W/m 3,6 km/h (1 Bft)
28.08.2013 17:00 23,9 C 22,6 C 52 % 1019,2 hPa 0,0 l/m 0,83 h 0,00 h 0,7 UV-I 324 W/m 5,1 km/h (1 Bft)
28.08.2013 18:00 23,9 C 22,4 C 50 % 1019,4 hPa 0,0 l/m 0,47 h 0,00 h 0,0 UV-I 139 W/m 3,0 km/h (1 Bft)
28.08.2013 19:00 22,6 C 20,6 C 54 % 1019,7 hPa 0,0 l/m 0,00 h 0,00 h 0,0 UV-I 38 W/m 1,1 km/h (0 Bft)
28.08.2013 20:00 19,7 C 17,0 C 67 % 1019,9 hPa 0,0 l/m 0,00 h 0,00 h 0,0 UV-I 11 W/m 0,0 km/h (0 Bft)
28.08.2013 21:00 17,3 C 14,9 C 76 % 1020,3 hPa 0,0 l/m 0,00 h 0,00 h 0,0 UV-I 0 W/m 0,0 km/h (0 Bft)
28.08.2013 22:00 15,8 C 13,6 C 83 % 1020,6 hPa 0,0 l/m 0,00 h 0,00 h 0,0 UV-I 0 W/m 0,0 km/h (0 Bft)
28.08.2013 23:00 14,7 C 12,7 C 87 % 1020,9 hPa 0,0 l/m 0,00 h 0,00 h 0,0 UV-I 0 W/m 0,0 km/h (0 Bft)
29.08.2013 00:00 13,8 C 12,0 C 90 % 1021,2 hPa 0,0 l/m 0,00 h 0,00 h 0,0 UV-I 0 W/m 0,0 km/h (0 Bft)
29.08.2013 01:00 13,1 C 11,4 C 91 % 1021,2 hPa 0,0 l/m 0,00 h 0,00 h 0,0 UV-I 0 W/m 0,0 km/h (0 Bft)
29.08.2013 02:00 12,5 C 10,8 C 92 % 1021,1 hPa 0,0 l/m 0,00 h 0,00 h 0,0 UV-I 0 W/m 0,0 km/h (0 Bft)
29.08.2013 03:00 12,0 C 10,5 C 94 % 1021,0 hPa 0,0 l/m 0,00 h 0,00 h 0,0 UV-I 0 W/m 0,0 km/h (0 Bft)
29.08.2013 04:00 11,4 C 10,0 C 95 % 1021,1 hPa 0,0 l/m 0,00 h 0,00 h 0,0 UV-I 0 W/m 0,0 km/h (0 Bft)
29.08.2013 05:00 10,9 C 9,4 C 95 % 1021,2 hPa 0,0 l/m 0,00 h 0,00 h 0,0 UV-I 0 W/m 0,0 km/h (0 Bft)
29.08.2013 06:00 10,9 C 9,4 C 96 % 1021,2 hPa 0,0 l/m 0,00 h 0,00 h 0,0 UV-I 7 W/m 0,0 km/h (0 Bft)
29.08.2013 07:00 11,3 C 10,1 C 96 % 1021,7 hPa 0,0 l/m 0,00 h 0,00 h 0,0 UV-I 31 W/m 0,4 km/h (0 Bft)
29.08.2013 08:00 12,9 C 12,1 C 95 % 1021,9 hPa 0,0 l/m 0,53 h 0,00 h 0,0 UV-I 148 W/m 0,5 km/h (0 Bft)
29.08.2013 09:00 15,6 C 14,9 C 87 % 1021,9 hPa 0,0 l/m 0,87 h 0,00 h 0,6 UV-I 247 W/m 0,2 km/h (0 Bft)
29.08.2013 10:00 18,7 C 18,2 C 77 % 1022,0 hPa 0,0 l/m 0,97 h 0,00 h 1,4 UV-I 467 W/m 1,3 km/h (1 Bft)
29.08.2013 11:00 21,1 C 21,0 C 70 % 1022,0 hPa 0,0 l/m 0,93 h 0,00 h 2,1 UV-I 531 W/m 0,5 km/h (0 Bft)
29.08.2013 12:00 22,8 C 23,2 C 64 % 1021,8 hPa 0,0 l/m 0,97 h 0,00 h 2,5 UV-I 590 W/m 3,9 km/h (1 Bft)
29.08.2013 13:00 23,8 C 24,0 C 58 % 1021,6 hPa 0,0 l/m 0,97 h 0,00 h 2,4 UV-I 639 W/m 7,0 km/h (2 Bft)
29.08.2013 14:00 24,3 C 24,3 C 53 % 1021,4 hPa 0,0 l/m 0,90 h 0,00 h 2,2 UV-I 492 W/m 5,5 km/h (1 Bft)
29.08.2013 15:00 24,4 C 24,3 C 53 % 1020,9 hPa 0,0 l/m 0,97 h 0,00 h 1,7 UV-I 416 W/m 5,4 km/h (1 Bft)
29.08.2013 16:00 24,2 C 23,9 C 53 % 1020,7 hPa 0,0 l/m 0,80 h 0,00 h 1,1 UV-I 325 W/m 3,9 km/h (1 Bft)
29.08.2013 17:00 24,2 C 23,3 C 53 % 1020,5 hPa 0,0 l/m 0,67 h 0,00 h 0,6 UV-I 261 W/m 1,1 km/h (0 Bft)
29.08.2013 18:00 23,9 C 22,0 C 52 % 1020,4 hPa 0,0 l/m 0,00 h 0,00 h 0,0 UV-I 99 W/m 1,9 km/h (1 Bft)
29.08.2013 19:00 22,1 C 19,7 C 61 % 1020,4 hPa 0,0 l/m 0,00 h 0,00 h 0,0 UV-I 43 W/m 0,0 km/h (0 Bft)
29.08.2013 20:00 19,3 C 16,8 C 72 % 1020,6 hPa 0,0 l/m 0,00 h 0,00 h 0,0 UV-I 10 W/m 0,0 km/h (0 Bft)
29.08.2013 21:00 17,3 C 15,0 C 80 % 1020,9 hPa 0,0 l/m 0,00 h 0,00 h 0,0 UV-I 0 W/m 0,0 km/h (0 Bft)
29.08.2013 22:00 15,9 C 13,8 C 85 % 1021,1 hPa 0,0 l/m 0,00 h 0,00 h 0,0 UV-I 0 W/m 0,0 km/h (0 Bft)
29.08.2013 23:00 14,9 C 13,1 C 88 % 1021,0 hPa 0,0 l/m 0,00 h 0,00 h 0,0 UV-I 0 W/m 0,0 km/h (0 Bft)
30.08.2013 00:00 14,2 C 12,2 C 92 % 1021,1 hPa 0,0 l/m 0,00 h 0,00 h 0,0 UV-I 0 W/m 0,0 km/h (0 Bft)
30.08.2013 01:00 13,4 C 11,7 C 93 % 1021,0 hPa 0,0 l/m 0,00 h 0,00 h 0,0 UV-I 0 W/m 0,0 km/h (0 Bft)
30.08.2013 02:00 12,9 C 11,1 C 94 % 1020,7 hPa 0,0 l/m 0,00 h 0,00 h 0,0 UV-I 0 W/m 0,0 km/h (0 Bft)
30.08.2013 03:00 12,4 C 10,8 C 95 % 1020,6 hPa 0,0 l/m 0,00 h 0,00 h 0,0 UV-I 0 W/m 0,0 km/h (0 Bft)
30.08.2013 04:00 11,9 C 10,3 C 96 % 1020,4 hPa 0,0 l/m 0,00 h 0,00 h 0,0 UV-I 0 W/m 0,0 km/h (0 Bft)
30.08.2013 05:00 11,3 C 9,9 C 96 % 1020,3 hPa 0,0 l/m 0,00 h 0,00 h 0,0 UV-I 0 W/m 0,0 km/h (0 Bft)
30.08.2013 06:00 11,0 C 9,4 C 96 % 1020,1 hPa 0,0 l/m 0,00 h 0,00 h 0,0 UV-I 7 W/m 0,0 km/h (0 Bft)
30.08.2013 07:00 11,3 C 10,0 C 97 % 1020,3 hPa 0,0 l/m 0,00 h 0,00 h 0,0 UV-I 33 W/m 0,0 km/h (0 Bft)
30.08.2013 08:00 13,1 C 12,1 C 96 % 1020,4 hPa 0,0 l/m 0,53 h 0,00 h 0,0 UV-I 126 W/m 0,0 km/h (0 Bft)
30.08.2013 09:00 16,4 C 15,6 C 86 % 1020,4 hPa 0,0 l/m 0,97 h 0,00 h 0,6 UV-I 291 W/m 0,3 km/h (0 Bft)
30.08.2013 10:00 19,8 C 18,8 C 75 % 1020,2 hPa 0,0 l/m 0,97 h 0,00 h 1,3 UV-I 434 W/m 0,7 km/h (0 Bft)
30.08.2013 11:00 21,6 C 21,4 C 69 % 1020,1 hPa 0,0 l/m 0,97 h 0,00 h 2,2 UV-I 555 W/m 3,6 km/h (1 Bft)
30.08.2013 12:00 22,8 C 23,1 C 64 % 1019,7 hPa 0,0 l/m 0,83 h 0,00 h 2,5 UV-I 524 W/m 6,1 km/h (2 Bft)
30.08.2013 13:00 23,3 C 23,3 C 59 % 1019,4 hPa 0,0 l/m 0,50 h 0,00 h 2,1 UV-I 440 W/m 9,6 km/h (2 Bft)
30.08.2013 14:00 23,5 C 23,3 C 58 % 1019,2 hPa 0,0 l/m 0,50 h 0,00 h 1,9 UV-I 367 W/m 8,7 km/h (2 Bft)
30.08.2013 15:00 23,4 C 23,0 C 56 % 1018,9 hPa 0,0 l/m 0,30 h 0,00 h 1,5 UV-I 329 W/m 9,5 km/h (2 Bft)
30.08.2013 16:00 23,2 C 22,9 C 55 % 1018,8 hPa 0,0 l/m 0,33 h 0,00 h 0,9 UV-I 263 W/m 9,7 km/h (2 Bft)
30.08.2013 17:00 23,1 C 22,3 C 56 % 1018,7 hPa 0,0 l/m 0,37 h 0,00 h 0,5 UV-I 188 W/m 7,4 km/h (2 Bft)
30.08.2013 18:00 23,0 C 22,0 C 56 % 1018,4 hPa 0,0 l/m 0,63 h 0,00 h 0,0 UV-I 149 W/m 10,0 km/h (2 Bft)
30.08.2013 19:00 21,8 C 20,0 C 60 % 1018,3 hPa 0,0 l/m 0,07 h 0,00 h 0,0 UV-I 42 W/m 5,1 km/h (1 Bft)
30.08.2013 20:00 19,4 C 17,0 C 69 % 1018,7 hPa 0,0 l/m 0,00 h 0,00 h 0,0 UV-I 9 W/m 0,0 km/h (0 Bft)
30.08.2013 21:00 18,2 C 16,1 C 75 % 1019,2 hPa 0,0 l/m 0,00 h 0,00 h 0,0 UV-I 0 W/m 0,0 km/h (0 Bft)
30.08.2013 22:00 17,2 C 15,1 C 81 % 1019,3 hPa 0,0 l/m 0,00 h 0,00 h 0,0 UV-I 0 W/m 0,0 km/h (0 Bft)
30.08.2013 23:00 16,3 C 14,3 C 85 % 1019,2 hPa 0,0 l/m 0,00 h 0,00 h 0,0 UV-I 0 W/m 0,0 km/h (0 Bft)
31.08.2013 00:00 15,3 C 13,4 C 89 % 1019,3 hPa 0,0 l/m 0,00 h 0,00 h 0,0 UV-I 0 W/m 0,0 km/h (0 Bft)
31.08.2013 01:00 15,0 C 13,1 C 91 % 1019,3 hPa 0,0 l/m 0,00 h 0,00 h 0,0 UV-I 0 W/m 0,0 km/h (0 Bft)
31.08.2013 02:00 15,0 C 13,2 C 90 % 1019,2 hPa 0,0 l/m 0,00 h 0,00 h 0,0 UV-I 0 W/m 0,0 km/h (0 Bft)
31.08.2013 03:00 14,4 C 12,7 C 92 % 1019,2 hPa 0,0 l/m 0,00 h 0,00 h 0,0 UV-I 0 W/m 0,0 km/h (0 Bft)
31.08.2013 04:00 14,2 C 12,8 C 93 % 1019,2 hPa 0,0 l/m 0,00 h 0,00 h 0,0 UV-I 0 W/m 0,2 km/h (0 Bft)
31.08.2013 05:00 14,5 C 13,6 C 93 % 1019,1 hPa 0,0 l/m 0,00 h 0,00 h 0,0 UV-I 0 W/m 0,6 km/h (0 Bft)
31.08.2013 06:00 15,1 C 13,9 C 91 % 1019,1 hPa 0,0 l/m 0,00 h 0,00 h 0,0 UV-I 5 W/m 0,7 km/h (0 Bft)
31.08.2013 07:00 15,2 C 14,1 C 91 % 1019,1 hPa 0,0 l/m 0,00 h 0,00 h 0,0 UV-I 23 W/m 0,4 km/h (0 Bft)
31.08.2013 08:00 16,2 C 15,7 C 91 % 1019,3 hPa 0,0 l/m 0,20 h 0,00 h 0,0 UV-I 108 W/m 1,9 km/h (1 Bft)
31.08.2013 09:00 17,3 C 16,8 C 89 % 1019,4 hPa 0,0 l/m 0,00 h 0,00 h 0,0 UV-I 109 W/m 4,9 km/h (1 Bft)
31.08.2013 10:00 18,2 C 17,7 C 89 % 1019,5 hPa 0,0 l/m 0,00 h 0,00 h 0,5 UV-I 120 W/m 4,2 km/h (1 Bft)
31.08.2013 11:00 18,5 C 17,8 C 89 % 1019,7 hPa 0,0 l/m 0,00 h 0,30 h 0,5 UV-I 104 W/m 5,6 km/h (1 Bft)
31.08.2013 12:00 17,6 C 16,4 C 95 % 1020,0 hPa 0,4 l/m 0,00 h 0,57 h 1,3 UV-I 94 W/m 4,5 km/h (1 Bft)
31.08.2013 13:00 19,4 C 18,5 C 93 % 1020,1 hPa 0,0 l/m 0,37 h 0,00 h 1,5 UV-I 322 W/m 4,8 km/h (1 Bft)
31.08.2013 14:00 20,3 C 18,3 C 84 % 1020,2 hPa 0,0 l/m 0,07 h 0,10 h 1,5 UV-I 221 W/m 12,4 km/h (3 Bft)
31.08.2013 15:00 21,2 C 20,3 C 77 % 1020,4 hPa 0,0 l/m 0,43 h 0,00 h 1,8 UV-I 403 W/m 16,6 km/h (3 Bft)
31.08.2013 16:00 21,9 C 21,0 C 67 % 1020,8 hPa 0,0 l/m 0,30 h 0,00 h 1,2 UV-I 307 W/m 15,8 km/h (3 Bft)
31.08.2013 17:00 21,7 C 20,5 C 60 % 1021,2 hPa 0,0 l/m 0,33 h 0,00 h 0,9 UV-I 230 W/m 14,3 km/h (3 Bft)
31.08.2013 18:00 20,9 C 19,1 C 59 % 1021,6 hPa 0,0 l/m 0,00 h 0,00 h 0,0 UV-I 62 W/m 14,7 km/h (3 Bft)
31.08.2013 19:00 19,3 C 17,3 C 59 % 1021,8 hPa 0,0 l/m 0,00 h 0,00 h 0,0 UV-I 25 W/m 4,9 km/h (1 Bft)
31.08.2013 20:00 17,9 C 16,3 C 69 % 1022,7 hPa 0,0 l/m 0,00 h 0,00 h 0,0 UV-I 7 W/m 11,3 km/h (2 Bft)
31.08.2013 21:00 16,6 C 15,3 C 69 % 1023,9 hPa 0,0 l/m 0,00 h 0,00 h 0,0 UV-I 0 W/m 12,8 km/h (3 Bft)
31.08.2013 22:00 14,9 C 13,4 C 72 % 1024,8 hPa 0,0 l/m 0,00 h 0,00 h 0,0 UV-I 0 W/m 2,8 km/h (1 Bft)
31.08.2013 23:00 13,4 C 11,5 C 77 % 1025,2 hPa 0,0 l/m 0,00 h 0,00 h 0,0 UV-I 0 W/m 0,0 km/h (0 Bft)
01.09.2013 00:00 11,8 C 10,0 C 83 % 1025,4 hPa 0,0 l/m 0,00 h 0,00 h 0,0 UV-I 0 W/m 0,0 km/h (0 Bft)
01.09.2013 01:00 11,5 C 9,7 C 85 % 1025,6 hPa 0,0 l/m 0,00 h 0,00 h 0,0 UV-I 0 W/m 0,0 km/h (0 Bft)
01.09.2013 02:00 10,7 C 9,0 C 88 % 1025,8 hPa 0,0 l/m 0,00 h 0,00 h 0,0 UV-I 0 W/m 0,0 km/h (0 Bft)
01.09.2013 03:00 10,6 C 9,1 C 89 % 1025,9 hPa 0,0 l/m 0,00 h 0,00 h 0,0 UV-I 0 W/m 0,0 km/h (0 Bft)
01.09.2013 04:00 10,5 C 8,9 C 90 % 1026,0 hPa 0,0 l/m 0,00 h 0,00 h 0,0 UV-I 0 W/m 0,0 km/h (0 Bft)
01.09.2013 05:00 9,5 C 8,0 C 91 % 1026,1 hPa 0,0 l/m 0,00 h 0,00 h 0,0 UV-I 0 W/m 0,0 km/h (0 Bft)
01.09.2013 06:00 9,1 C 8,0 C 92 % 1026,2 hPa 0,0 l/m 0,00 h 0,00 h 0,0 UV-I 10 W/m 0,2 km/h (0 Bft)
01.09.2013 07:00 9,5 C 8,7 C 92 % 1026,5 hPa 0,0 l/m 0,17 h 0,00 h 0,0 UV-I 42 W/m 0,1 km/h (0 Bft)
01.09.2013 08:00 10,6 C 10,2 C 89 % 1026,7 hPa 0,0 l/m 0,10 h 0,00 h 0,0 UV-I 100 W/m 1,4 km/h (1 Bft)
01.09.2013 09:00 12,6 C 12,2 C 84 % 1027,1 hPa 0,0 l/m 0,60 h 0,00 h 0,6 UV-I 260 W/m 1,8 km/h (1 Bft)
01.09.2013 10:00 14,7 C 14,7 C 77 % 1027,4 hPa 0,0 l/m 0,53 h 0,00 h 1,0 UV-I 324 W/m 6,0 km/h (2 Bft)
01.09.2013 11:00 16,5 C 16,9 C 71 % 1027,4 hPa 0,0 l/m 0,87 h 0,00 h 1,9 UV-I 467 W/m 8,0 km/h (2 Bft)
01.09.2013 12:00 18,3 C 19,0 C 65 % 1027,0 hPa 0,0 l/m 0,80 h 0,00 h 2,3 UV-I 519 W/m 10,4 km/h (2 Bft)
01.09.2013 13:00 18,7 C 19,3 C 62 % 1026,8 hPa 0,0 l/m 0,63 h 0,00 h 1,9 UV-I 410 W/m 11,3 km/h (2 Bft)
01.09.2013 14:00 18,9 C 19,2 C 59 % 1026,5 hPa 0,0 l/m 0,43 h 0,00 h 1,8 UV-I 377 W/m 12,7 km/h (3 Bft)
01.09.2013 15:00 18,8 C 18,8 C 61 % 1026,5 hPa 0,0 l/m 0,00 h 0,00 h 1,1 UV-I 250 W/m 11,1 km/h (2 Bft)
01.09.2013 16:00 18,8 C 18,8 C 58 % 1026,4 hPa 0,0 l/m 0,00 h 0,00 h 0,9 UV-I 261 W/m 12,2 km/h (3 Bft)
01.09.2013 17:00 18,2 C 17,8 C 59 % 1026,1 hPa 0,0 l/m 0,00 h 0,00 h 0,0 UV-I 171 W/m 10,3 km/h (2 Bft)
01.09.2013 18:00 17,4 C 16,8 C 63 % 1025,9 hPa 0,0 l/m 0,00 h 0,00 h 0,0 UV-I 111 W/m 9,6 km/h (2 Bft)
01.09.2013 19:00 16,4 C 15,3 C 65 % 1025,7 hPa 0,0 l/m 0,00 h 0,00 h 0,0 UV-I 37 W/m 3,7 km/h (1 Bft)
01.09.2013 20:00 15,8 C 14,3 C 69 % 1026,0 hPa 0,0 l/m 0,00 h 0,00 h 0,0 UV-I 7 W/m 2,1 km/h (1 Bft)
01.09.2013 21:00 15,1 C 13,8 C 72 % 1026,4 hPa 0,0 l/m 0,00 h 0,00 h 0,0 UV-I 0 W/m 0,5 km/h (0 Bft)
01.09.2013 22:00 14,6 C 13,2 C 75 % 1026,5 hPa 0,0 l/m 0,00 h 0,00 h 0,0 UV-I 0 W/m 0,3 km/h (0 Bft)
01.09.2013 23:00 14,1 C 12,9 C 77 % 1026,3 hPa 0,0 l/m 0,00 h 0,00 h 0,0 UV-I 0 W/m 0,1 km/h (0 Bft)
Min-Datum _ 01.09.13 01.09.13 27.08.13 27.08.13 - - - - - 26.08.13
_ Min-Zeit 06:06 05:16 15:56 18:12 - - - - - 00:00
Minimum _ 9,1 C 7,8 C 41 % 1013,5 hPa - - - - - 0,0 km/h (0 Bft)
Max-Datum _ 27.08.13 27.08.13 26.08.13 01.09.13 31.08.13 26.08.13 26.08.13 26.08.13 31.08.13 26.08.13
_ Max-Zeit 16:00 12:34 00:24 10:22 12:00 08:30 02:06 14:08 13:52 14:18
Maximum _ 25,3 C 25,0 C 99 % 1027,6 hPa 0,4 l/m 0,03 h 0,03 h 3,9 UV-I 877 W/m 41,2 km/h
W-NW (6 Bft)
Durchschnitt _ 17,4 C 16,1 C 75 % 1019,5 hPa #0,6 l/m #41:04 h #1:40 h 1,6 UV-I 249 W/m 3,5 km/h (1 Bft)
© 2013 W. Hausmann